createdAt,value
2017-07-23T00:02:23.318Z,18
2017-07-23T00:12:38.366Z,18
2017-07-23T00:22:53.280Z,17.8
2017-07-23T00:33:07.840Z,17.6
2017-07-23T00:43:21.928Z,17.7
2017-07-23T00:53:36.674Z,17.4
2017-07-23T01:03:51.315Z,17.3
2017-07-23T01:14:05.742Z,17.1
2017-07-23T01:24:20.909Z,17.1
2017-07-23T01:34:35.550Z,17.1
2017-07-23T01:44:49.310Z,16.9
2017-07-23T01:55:03.863Z,16.9
2017-07-23T02:05:17.944Z,17
2017-07-23T02:15:32.139Z,16.8
2017-07-23T02:25:46.739Z,16.6
2017-07-23T02:36:01.967Z,16.8
2017-07-23T02:46:16.409Z,16.8
2017-07-23T02:56:31.464Z,16.6
2017-07-23T03:06:47.234Z,16.6
2017-07-23T03:17:02.105Z,16.7
2017-07-23T03:27:16.772Z,16.7
2017-07-23T03:37:32.475Z,16.7
2017-07-23T03:47:48.105Z,16.7
2017-07-23T03:58:01.900Z,16.5
2017-07-23T04:08:17.243Z,16.6
2017-07-23T04:18:31.070Z,16.5
2017-07-23T04:28:46.662Z,16.6
2017-07-23T04:39:02.165Z,16.5
2017-07-23T04:49:17.871Z,16.5
2017-07-23T04:59:32.018Z,16.5
2017-07-23T05:09:47.723Z,16.5
2017-07-23T05:20:03.496Z,16.5
2017-07-23T05:30:17.978Z,16.6
2017-07-23T05:40:32.050Z,16.4
2017-07-23T05:50:47.719Z,16.4
2017-07-23T06:01:02.501Z,16.4
2017-07-23T06:11:18.165Z,16.6
2017-07-23T06:21:32.127Z,17
2017-07-23T06:31:46.268Z,17.4
2017-07-23T06:42:00.207Z,17.7
2017-07-23T06:52:14.432Z,17.7
2017-07-23T07:02:29.483Z,18.1
2017-07-23T07:12:43.900Z,17.9
2017-07-23T07:22:58.096Z,18.5
2017-07-23T07:33:13.607Z,19.1
2017-07-23T07:43:28.883Z,19.6
2017-07-23T07:53:44.789Z,18.7
2017-07-23T08:04:00.172Z,17.8
2017-07-23T08:14:15.901Z,18.1
2017-07-23T08:24:31.265Z,17.5
2017-07-23T08:34:45.498Z,19.4
2017-07-23T08:45:00.967Z,18.2
2017-07-23T08:55:15.749Z,18.9
2017-07-23T09:05:31.093Z,18.9
2017-07-23T09:15:46.812Z,19.5
2017-07-23T09:26:00.763Z,19.6
2017-07-23T09:36:16.153Z,18.2
2017-07-23T09:46:30.030Z,18.8
2017-07-23T09:56:44.428Z,18.4
2017-07-23T10:06:59.789Z,21.4
2017-07-23T10:17:14.440Z,19.3
2017-07-23T10:27:29.234Z,18.9
2017-07-23T10:37:43.439Z,17.9
2017-07-23T10:47:58.831Z,17
2017-07-23T10:58:13.807Z,17
2017-07-23T11:08:27.836Z,19.1
2017-07-23T11:18:43.096Z,17.7
2017-07-23T11:28:57.398Z,18.5
2017-07-23T11:39:13.250Z,21.1
2017-07-23T11:49:28.779Z,20.3
2017-07-23T11:59:43.836Z,19.7
2017-07-23T12:09:58.046Z,20.4
2017-07-23T12:20:13.380Z,21.2
2017-07-23T12:30:28.823Z,22.1
2017-07-23T12:40:44.202Z,21.9
2017-07-23T12:50:59.044Z,21.8
2017-07-23T13:01:13.513Z,22.1
2017-07-23T13:11:28.524Z,20.7
2017-07-23T13:21:43.410Z,20.8
2017-07-23T13:31:58.651Z,22
2017-07-23T13:42:13.117Z,21.7
2017-07-23T13:52:28.760Z,22.1
2017-07-23T14:02:43.722Z,22
2017-07-23T14:12:57.997Z,21.7
2017-07-23T14:23:12.205Z,21.1
2017-07-23T14:33:27.565Z,21.6
2017-07-23T14:43:42.366Z,22.2
2017-07-23T14:53:56.699Z,22.4
2017-07-23T15:04:12.360Z,22.7
2017-07-23T15:14:28.193Z,22.1
2017-07-23T15:24:43.419Z,21.2
2017-07-23T15:34:59.053Z,20.8
2017-07-23T15:45:14.163Z,21.1
2017-07-23T15:55:29.364Z,22.3
2017-07-23T16:05:44.909Z,20.9
2017-07-23T16:16:00.098Z,20.4
2017-07-23T16:26:15.048Z,21.6
2017-07-23T16:36:29.556Z,21.2
2017-07-23T16:46:44.514Z,22
2017-07-23T16:56:59.230Z,20.5
2017-07-23T17:07:13.845Z,20.4
2017-07-23T17:17:28.918Z,19.7
2017-07-23T17:27:42.774Z,19.3
2017-07-23T17:37:58.667Z,18.4
2017-07-23T17:48:13.325Z,17
2017-07-23T17:58:28.151Z,16
2017-07-23T18:08:43.101Z,15.8
2017-07-23T18:18:58.752Z,15.5
2017-07-23T18:29:12.728Z,15.5
2017-07-23T18:39:26.810Z,15.4
2017-07-23T18:49:41.128Z,15.4
2017-07-23T18:59:55.431Z,15.3
2017-07-23T19:10:11.060Z,15.1
2017-07-23T19:20:25.997Z,15
2017-07-23T19:30:41.047Z,15.2
2017-07-23T19:40:56.179Z,15.1
2017-07-23T19:51:10.220Z,15.1
2017-07-23T20:01:25.529Z,15
2017-07-23T20:11:41.420Z,14.8
2017-07-23T20:21:56.405Z,14.8
2017-07-23T20:32:11.871Z,14.8
2017-07-23T20:42:26.654Z,14.7
2017-07-23T20:52:40.982Z,14.7
2017-07-23T21:02:55.232Z,14.8
2017-07-23T21:13:09.529Z,14.6
2017-07-23T21:23:24.457Z,14.6
2017-07-23T21:33:39.070Z,14.5
2017-07-23T21:43:53.427Z,14.4
2017-07-23T21:54:08.026Z,14.4
2017-07-23T22:04:22.875Z,14.2
2017-07-23T22:14:38.289Z,14.2
2017-07-23T22:24:53.906Z,14
2017-07-23T22:35:09.040Z,13.9
2017-07-23T22:45:23.242Z,14
2017-07-23T22:55:38.973Z,14.3
2017-07-23T23:05:54.279Z,14.2
2017-07-23T23:16:09.329Z,14.1
2017-07-23T23:26:23.117Z,14.3
2017-07-23T23:36:38.656Z,14.4
2017-07-23T23:46:53.925Z,14.3
2017-07-23T23:57:08.869Z,14.4
